sensor_id;sensor_type;location;lat;lon;timestamp;pressure;altitude;pressure_sealevel;temperature;humidity
49030;BME280;43337;52.070;4.508;2024-01-30T00:01:34;102689.91;;;8.54;100.00
49030;BME280;43337;52.070;4.508;2024-01-30T00:04:00;102668.06;;;8.41;100.00
49030;BME280;43337;52.070;4.508;2024-01-30T00:06:25;102695.13;;;8.57;100.00
49030;BME280;43337;52.070;4.508;2024-01-30T00:08:56;102684.66;;;8.54;100.00
49030;BME280;43337;52.070;4.508;2024-01-30T00:11:23;102655.81;;;8.37;100.00
49030;BME280;43337;52.070;4.508;2024-01-30T00:13:51;102701.25;;;8.62;100.00
49030;BME280;43337;52.070;4.508;2024-01-30T00:16:21;102694.22;;;8.66;100.00
49030;BME280;43337;52.070;4.508;2024-01-30T00:18:47;102684.59;;;8.57;100.00
49030;BME280;43337;52.070;4.508;2024-01-30T00:21:12;102693.31;;;8.70;100.00
49030;BME280;43337;52.070;4.508;2024-01-30T00:23:38;102686.34;;;8.69;100.00
49030;BME280;43337;52.070;4.508;2024-01-30T00:26:03;102672.31;;;8.70;100.00
49030;BME280;43337;52.070;4.508;2024-01-30T00:28:30;102677.56;;;8.68;100.00
49030;BME280;43337;52.070;4.508;2024-01-30T00:30:57;102669.69;;;8.68;100.00
49030;BME280;43337;52.070;4.508;2024-01-30T00:33:24;102666.19;;;8.68;100.00
49030;BME280;43337;52.070;4.508;2024-01-30T00:35:50;102666.16;;;8.72;100.00
49030;BME280;43337;52.070;4.508;2024-01-30T00:38:15;102672.28;;;8.77;100.00
49030;BME280;43337;52.070;4.508;2024-01-30T00:40:42;102674.00;;;8.80;100.00
49030;BME280;43337;52.070;4.508;2024-01-30T00:43:07;102674.00;;;8.80;100.00
49030;BME280;43337;52.070;4.508;2024-01-30T00:45:33;102681.88;;;8.82;100.00
49030;BME280;43337;52.070;4.508;2024-01-30T00:47:59;102681.03;;;8.78;100.00
49030;BME280;43337;52.070;4.508;2024-01-30T00:50:24;102687.13;;;8.83;100.00
49030;BME280;43337;52.070;4.508;2024-01-30T00:52:49;102704.63;;;8.86;100.00
49030;BME280;43337;52.070;4.508;2024-01-30T00:55:15;102694.13;;;8.84;100.00
49030;BME280;43337;52.070;4.508;2024-01-30T00:57:40;102694.97;;;8.88;100.00
49030;BME280;43337;52.070;4.508;2024-01-30T01:00:07;102681.84;;;8.86;100.00
49030;BME280;43337;52.070;4.508;2024-01-30T01:02:35;102683.56;;;8.90;100.00
49030;BME280;43337;52.070;4.508;2024-01-30T01:05:01;102672.22;;;8.84;100.00
49030;BME280;43337;52.070;4.508;2024-01-30T01:07:27;102682.72;;;8.84;100.00
49030;BME280;43337;52.070;4.508;2024-01-30T01:09:55;102681.84;;;8.88;100.00
49030;BME280;43337;52.070;4.508;2024-01-30T01:12:20;102650.44;;;8.68;100.00
49030;BME280;43337;52.070;4.508;2024-01-30T01:14:45;102675.75;;;8.84;100.00
49030;BME280;43337;52.070;4.508;2024-01-30T01:17:11;102678.38;;;8.81;100.00
49030;BME280;43337;52.070;4.508;2024-01-30T01:19:37;102676.66;;;8.78;100.00
49030;BME280;43337;52.070;4.508;2024-01-30T01:22:02;102669.63;;;8.79;100.00
49030;BME280;43337;52.070;4.508;2024-01-30T01:24:29;102673.13;;;8.79;100.00
49030;BME280;43337;52.070;4.508;2024-01-30T01:26:55;102671.38;;;8.78;100.00
49030;BME280;43337;52.070;4.508;2024-01-30T01:29:21;102628.59;;;8.66;100.00
49030;BME280;43337;52.070;4.508;2024-01-30T01:31:55;102639.94;;;8.69;100.00
49030;BME280;43337;52.070;4.508;2024-01-30T01:34:21;102612.00;;;8.56;100.00
49030;BME280;43337;52.070;4.508;2024-01-30T01:36:46;102589.28;;;8.47;100.00
49030;BME280;43337;52.070;4.508;2024-01-30T01:39:13;102647.81;;;8.68;100.00
49030;BME280;43337;52.070;4.508;2024-01-30T01:41:42;102631.19;;;8.64;100.00
49030;BME280;43337;52.070;4.508;2024-01-30T01:44:09;102656.53;;;8.71;100.00
49030;BME280;43337;52.070;4.508;2024-01-30T01:46:46;102653.03;;;8.71;100.00
49030;BME280;43337;52.070;4.508;2024-01-30T01:49:27;102607.69;;;8.46;100.00
49030;BME280;43337;52.070;4.508;2024-01-30T01:51:56;102595.47;;;8.39;100.00
49030;BME280;43337;52.070;4.508;2024-01-30T01:54:24;102639.09;;;8.66;100.00
49030;BME280;43337;52.070;4.508;2024-01-30T01:56:56;102633.88;;;8.55;100.00
49030;BME280;43337;52.070;4.508;2024-01-30T01:59:25;102655.66;;;8.72;100.00
49030;BME280;43337;52.070;4.508;2024-01-30T02:01:53;102626.00;;;8.55;100.00
49030;BME280;43337;52.070;4.508;2024-01-30T02:04:21;102654.78;;;8.72;100.00
49030;BME280;43337;52.070;4.508;2024-01-30T02:06:47;102655.66;;;8.74;100.00
49030;BME280;43337;52.070;4.508;2024-01-30T02:09:12;102603.28;;;8.48;100.00
49030;BME280;43337;52.070;4.508;2024-01-30T02:11:37;102647.78;;;8.74;100.00
49030;BME280;43337;52.070;4.508;2024-01-30T02:14:04;102639.88;;;8.75;100.00
49030;BME280;43337;52.070;4.508;2024-01-30T02:16:31;102642.50;;;8.75;100.00
49030;BME280;43337;52.070;4.508;2024-01-30T02:18:57;102614.59;;;8.59;100.00
49030;BME280;43337;52.070;4.508;2024-01-30T02:21:24;102631.13;;;8.78;100.00
49030;BME280;43337;52.070;4.508;2024-01-30T02:23:50;102632.88;;;8.77;100.00
49030;BME280;43337;52.070;4.508;2024-01-30T02:26:16;102605.81;;;8.65;100.00
49030;BME280;43337;52.070;4.508;2024-01-30T02:28:41;102638.13;;;8.76;100.00
49030;BME280;43337;52.070;4.508;2024-01-30T02:31:08;102641.63;;;8.78;100.00
49030;BME280;43337;52.070;4.508;2024-01-30T02:33:33;102633.78;;;8.73;100.00
49030;BME280;43337;52.070;4.508;2024-01-30T02:35:58;102638.13;;;8.77;100.00
49030;BME280;43337;52.070;4.508;2024-01-30T02:38:24;102621.56;;;8.69;100.00
49030;BME280;43337;52.070;4.508;2024-01-30T02:40:51;102630.28;;;8.74;100.00
49030;BME280;43337;52.070;4.508;2024-01-30T02:43:17;102641.66;;;8.76;100.00
49030;BME280;43337;52.070;4.508;2024-01-30T02:45:42;102628.53;;;8.76;100.00
49030;BME280;43337;52.070;4.508;2024-01-30T02:48:08;102624.13;;;8.75;100.00
49030;BME280;43337;52.070;4.508;2024-01-30T02:50:34;102614.53;;;8.73;100.00
49030;BME280;43337;52.070;4.508;2024-01-30T02:53:00;102613.63;;;8.77;100.00
49030;BME280;43337;52.070;4.508;2024-01-30T02:55:25;102606.63;;;8.76;100.00
49030;BME280;43337;52.070;4.508;2024-01-30T02:57:50;102603.13;;;8.75;100.00
49030;BME280;43337;52.070;4.508;2024-01-30T03:00:18;102602.28;;;8.72;100.00
49030;BME280;43337;52.070;4.508;2024-01-30T03:02:48;102603.13;;;8.75;100.00
49030;BME280;43337;52.070;4.508;2024-01-30T03:05:14;102605.75;;;8.75;100.00
49030;BME280;43337;52.070;4.508;2024-01-30T03:07:41;102609.25;;;8.74;100.00
49030;BME280;43337;52.070;4.508;2024-01-30T03:10:06;102594.44;;;8.69;100.00
49030;BME280;43337;52.070;4.508;2024-01-30T03:12:32;102607.50;;;8.75;100.00
49030;BME280;43337;52.070;4.508;2024-01-30T03:14:58;102597.91;;;8.71;100.00
49030;BME280;43337;52.070;4.508;2024-01-30T03:17:23;102600.53;;;8.71;100.00
49030;BME280;43337;52.070;4.508;2024-01-30T03:19:49;102608.38;;;8.75;100.00
49030;BME280;43337;52.070;4.508;2024-01-30T03:22:15;102588.28;;;8.71;100.00
49030;BME280;43337;52.070;4.508;2024-01-30T03:24:40;102590.00;;;8.72;100.00
49030;BME280;43337;52.070;4.508;2024-01-30T03:27:06;102611.88;;;8.76;100.00
49030;BME280;43337;52.070;4.508;2024-01-30T03:29:31;102600.50;;;8.75;100.00
49030;BME280;43337;52.070;4.508;2024-01-30T03:31:59;102599.63;;;8.75;100.00
49030;BME280;43337;52.070;4.508;2024-01-30T03:34:24;102595.25;;;8.74;100.00
49030;BME280;43337;52.070;4.508;2024-01-30T03:36:50;102601.34;;;8.79;100.00
49030;BME280;43337;52.070;4.508;2024-01-30T03:39:16;102607.47;;;8.79;100.00
49030;BME280;43337;52.070;4.508;2024-01-30T03:41:43;102600.47;;;8.82;100.00
49030;BME280;43337;52.070;4.508;2024-01-30T03:44:11;102567.34;;;8.59;100.00
49030;BME280;43337;52.070;4.508;2024-01-30T03:46:38;102602.19;;;8.83;100.00
49030;BME280;43337;52.070;4.508;2024-01-30T03:49:03;102596.97;;;8.84;100.00
49030;BME280;43337;52.070;4.508;2024-01-30T03:51:28;102595.19;;;8.85;100.00
49030;BME280;43337;52.070;4.508;2024-01-30T03:53:54;102548.94;;;8.64;100.00
49030;BME280;43337;52.070;4.508;2024-01-30T03:56:20;102583.84;;;8.81;100.00
49030;BME280;43337;52.070;4.508;2024-01-30T03:58:45;102588.16;;;8.88;100.00
49030;BME280;43337;52.070;4.508;2024-01-30T04:01:14;102599.53;;;8.87;100.00
49030;BME280;43337;52.070;4.508;2024-01-30T04:03:40;102568.13;;;8.73;100.00
49030;BME280;43337;52.070;4.508;2024-01-30T04:06:05;102590.78;;;8.87;100.00
49030;BME280;43337;52.070;4.508;2024-01-30T04:08:31;102573.31;;;8.79;100.00
49030;BME280;43337;52.070;4.508;2024-01-30T04:10:57;102575.97;;;8.81;100.00
49030;BME280;43337;52.070;4.508;2024-01-30T04:13:23;102587.34;;;8.82;100.00
49030;BME280;43337;52.070;4.508;2024-01-30T04:15:48;102541.13;;;8.58;100.00
49030;BME280;43337;52.070;4.508;2024-01-30T04:18:15;102589.94;;;8.83;100.00
49030;BME280;43337;52.070;4.508;2024-01-30T04:20:40;102586.44;;;8.86;100.00
49030;BME280;43337;52.070;4.508;2024-01-30T04:23:06;102577.72;;;8.80;100.00
49030;BME280;43337;52.070;4.508;2024-01-30T04:25:32;102570.72;;;8.81;100.00
49030;BME280;43337;52.070;4.508;2024-01-30T04:27:57;102569.78;;;8.87;100.00
49030;BME280;43337;52.070;4.508;2024-01-30T04:30:23;102562.75;;;8.87;100.00
49030;BME280;43337;52.070;4.508;2024-01-30T04:32:48;102555.75;;;8.88;100.00
49030;BME280;43337;52.070;4.508;2024-01-30T04:35:15;102569.72;;;8.96;100.00
49030;BME280;43337;52.070;4.508;2024-01-30T04:37:40;102541.78;;;8.86;100.00
49030;BME280;43337;52.070;4.508;2024-01-30T04:40:06;102557.44;;;8.98;100.00
49030;BME280;43337;52.070;4.508;2024-01-30T04:42:31;102527.78;;;8.82;100.00
49030;BME280;43337;52.070;4.508;2024-01-30T04:44:57;102556.56;;;8.97;100.00
49030;BME280;43337;52.070;4.508;2024-01-30T04:47:22;102556.59;;;8.96;100.00
49030;BME280;43337;52.070;4.508;2024-01-30T04:49:48;102529.53;;;8.83;100.00
49030;BME280;43337;52.070;4.508;2024-01-30T04:52:13;102553.91;;;8.99;100.00
49030;BME280;43337;52.070;4.508;2024-01-30T04:54:38;102539.13;;;8.89;100.00
49030;BME280;43337;52.070;4.508;2024-01-30T04:57:04;102561.78;;;8.99;100.00
49030;BME280;43337;52.070;4.508;2024-01-30T04:59:34;102548.72;;;8.93;100.00
49030;BME280;43337;52.070;4.508;2024-01-30T05:01:59;102560.94;;;8.95;100.00
49030;BME280;43337;52.070;4.508;2024-01-30T05:04:24;102565.31;;;9.01;100.00
49030;BME280;43337;52.070;4.508;2024-01-30T05:06:50;102540.91;;;8.84;100.00
49030;BME280;43337;52.070;4.508;2024-01-30T05:09:15;102574.03;;;9.03;100.00
49030;BME280;43337;52.070;4.508;2024-01-30T05:11:41;102549.56;;;8.95;100.00
49030;BME280;43337;52.070;4.508;2024-01-30T05:14:06;102570.53;;;9.04;100.00
49030;BME280;43337;52.070;4.508;2024-01-30T05:16:32;102552.19;;;8.99;100.00
49030;BME280;43337;52.070;4.508;2024-01-30T05:18:58;102561.78;;;9.02;100.00
49030;BME280;43337;52.070;4.508;2024-01-30T05:21:24;102552.19;;;8.95;100.00
49030;BME280;43337;52.070;4.508;2024-01-30T05:23:49;102544.31;;;8.95;100.00
49030;BME280;43337;52.070;4.508;2024-01-30T05:26:14;102546.97;;;8.93;100.00
49030;BME280;43337;52.070;4.508;2024-01-30T05:28:40;102567.88;;;9.07;100.00
49030;BME280;43337;52.070;4.508;2024-01-30T05:31:05;102533.88;;;8.87;100.00
49030;BME280;43337;52.070;4.508;2024-01-30T05:33:30;102556.50;;;9.05;100.00
49030;BME280;43337;52.070;4.508;2024-01-30T05:35:56;102569.56;;;9.13;100.00
49030;BME280;43337;52.070;4.508;2024-01-30T05:38:21;102558.19;;;9.12;100.00
49030;BME280;43337;52.070;4.508;2024-01-30T05:40:46;102550.34;;;9.06;100.00
49030;BME280;43337;52.070;4.508;2024-01-30T05:43:12;102566.06;;;9.15;100.00
49030;BME280;43337;52.070;4.508;2024-01-30T05:45:38;102540.75;;;9.05;100.00
49030;BME280;43337;52.070;4.508;2024-01-30T05:48:04;102559.94;;;9.15;100.00
49030;BME280;43337;52.070;4.508;2024-01-30T05:50:30;102565.16;;;9.16;100.00
49030;BME280;43337;52.070;4.508;2024-01-30T05:52:57;102564.31;;;9.16;100.00
49030;BME280;43337;52.070;4.508;2024-01-30T05:55:22;102574.81;;;9.16;100.00
49030;BME280;43337;52.070;4.508;2024-01-30T05:57:47;102561.75;;;9.08;100.00
49030;BME280;43337;52.070;4.508;2024-01-30T06:00:13;102576.56;;;9.15;100.00
49030;BME280;43337;52.070;4.508;2024-01-30T06:02:39;102565.25;;;9.05;100.00
49030;BME280;43337;52.070;4.508;2024-01-30T06:05:04;102579.19;;;9.15;100.00
49030;BME280;43337;52.070;4.508;2024-01-30T06:07:29;102590.53;;;9.20;100.00
49030;BME280;43337;52.070;4.508;2024-01-30T06:09:55;102572.19;;;9.14;100.00
49030;BME280;43337;52.070;4.508;2024-01-30T06:12:20;102572.97;;;9.22;100.00
49030;BME280;43337;52.070;4.508;2024-01-30T06:14:45;102571.25;;;9.21;100.00
49030;BME280;43337;52.070;4.508;2024-01-30T06:17:12;102579.97;;;9.25;100.00
49030;BME280;43337;52.070;4.508;2024-01-30T06:19:38;102549.50;;;9.07;100.00
49030;BME280;43337;52.070;4.508;2024-01-30T06:22:04;102577.34;;;9.26;100.00
49030;BME280;43337;52.070;4.508;2024-01-30T06:24:30;102577.28;;;9.29;100.00
49030;BME280;43337;52.070;4.508;2024-01-30T06:26:55;102578.19;;;9.28;100.00
49030;BME280;43337;52.070;4.508;2024-01-30T06:29:21;102576.44;;;9.26;100.00
49030;BME280;43337;52.070;4.508;2024-01-30T06:31:46;102579.94;;;9.28;100.00
49030;BME280;43337;52.070;4.508;2024-01-30T06:34:12;102538.06;;;9.10;100.00
49030;BME280;43337;52.070;4.508;2024-01-30T06:36:38;102571.19;;;9.29;100.00
49030;BME280;43337;52.070;4.508;2024-01-30T06:39:07;102539.84;;;9.06;100.00
49030;BME280;43337;52.070;4.508;2024-01-30T06:41:36;102563.31;;;9.27;100.00
49030;BME280;43337;52.070;4.508;2024-01-30T06:44:02;102553.72;;;9.23;100.00
49030;BME280;43337;52.070;4.508;2024-01-30T06:46:35;102536.34;;;9.07;100.00
49030;BME280;43337;52.070;4.508;2024-01-30T06:49:00;102573.75;;;9.34;100.00
49030;BME280;43337;52.070;4.508;2024-01-30T06:51:31;102548.50;;;9.20;100.00
49030;BME280;43337;52.070;4.508;2024-01-30T06:54:00;102526.66;;;9.11;100.00
49030;BME280;43337;52.070;4.508;2024-01-30T06:56:26;102581.56;;;9.43;100.00
49030;BME280;43337;52.070;4.508;2024-01-30T06:58:52;102571.03;;;9.46;100.00
49030;BME280;43337;52.070;4.508;2024-01-30T07:01:17;102580.56;;;9.53;100.00
49030;BME280;43337;52.070;4.508;2024-01-30T07:03:50;102572.75;;;9.45;100.00
49030;BME280;43337;52.070;4.508;2024-01-30T07:06:16;102588.53;;;9.50;100.00
49030;BME280;43337;52.070;4.508;2024-01-30T07:08:47;102560.59;;;9.38;100.00
49030;BME280;43337;52.070;4.508;2024-01-30T07:11:21;102589.28;;;9.60;100.00
49030;BME280;43337;52.070;4.508;2024-01-30T07:13:54;102598.03;;;9.62;100.00
49030;BME280;43337;52.070;4.508;2024-01-30T07:16:31;102596.25;;;9.64;100.00
49030;BME280;43337;52.070;4.508;2024-01-30T07:18:56;102577.13;;;9.49;100.00
49030;BME280;43337;52.070;4.508;2024-01-30T07:21:22;102595.38;;;9.65;100.00
49030;BME280;43337;52.070;4.508;2024-01-30T07:23:55;102609.34;;;9.68;100.00
49030;BME280;43337;52.070;4.508;2024-01-30T07:26:21;102599.78;;;9.63;100.00
49030;BME280;43337;52.070;4.508;2024-01-30T07:28:46;102605.88;;;9.66;100.00
49030;BME280;43337;52.070;4.508;2024-01-30T07:31:16;102617.22;;;9.71;100.00
49030;BME280;43337;52.070;4.508;2024-01-30T07:33:45;102620.72;;;9.73;100.00
49030;BME280;43337;52.070;4.508;2024-01-30T07:36:14;102618.91;;;9.75;100.00
49030;BME280;43337;52.070;4.508;2024-01-30T07:38:45;102611.97;;;9.68;100.00
49030;BME280;43337;52.070;4.508;2024-01-30T07:41:11;102595.41;;;9.62;100.00
49030;BME280;43337;52.070;4.508;2024-01-30T07:43:38;102595.41;;;9.60;100.00
49030;BME280;43337;52.070;4.508;2024-01-30T07:46:13;102603.28;;;9.65;100.00
49030;BME280;43337;52.070;4.508;2024-01-30T07:48:46;102629.38;;;9.83;100.00
49030;BME280;43337;52.070;4.508;2024-01-30T07:51:12;102560.47;;;9.49;100.00
49030;BME280;43337;52.070;4.508;2024-01-30T07:53:37;102575.28;;;9.56;100.00
49030;BME280;43337;52.070;4.508;2024-01-30T07:56:06;102602.31;;;9.70;100.00
49030;BME280;43337;52.070;4.508;2024-01-30T07:58:34;102614.53;;;9.77;100.00
49030;BME280;43337;52.070;4.508;2024-01-30T08:01:11;102601.44;;;9.73;100.00
49030;BME280;43337;52.070;4.508;2024-01-30T08:03:37;102618.81;;;9.86;100.00
49030;BME280;43337;52.070;4.508;2024-01-30T08:06:05;102629.31;;;9.88;100.00
49030;BME280;43337;52.070;4.508;2024-01-30T08:08:32;102652.81;;;10.05;100.00
49030;BME280;43337;52.070;4.508;2024-01-30T08:10:58;102640.59;;;10.00;100.00
49030;BME280;43337;52.070;4.508;2024-01-30T08:13:26;102646.66;;;10.07;100.00
49030;BME280;43337;52.070;4.508;2024-01-30T08:15:58;102596.97;;;9.81;100.00
49030;BME280;43337;52.070;4.508;2024-01-30T08:18:24;102664.06;;;10.17;100.00
49030;BME280;43337;52.070;4.508;2024-01-30T08:20:57;102666.72;;;10.19;100.00
49030;BME280;43337;52.070;4.508;2024-01-30T08:23:27;102670.19;;;10.21;100.00
49030;BME280;43337;52.070;4.508;2024-01-30T08:25:52;102670.19;;;10.21;100.00
49030;BME280;43337;52.070;4.508;2024-01-30T08:28:35;102636.16;;;10.04;100.00
49030;BME280;43337;52.070;4.508;2024-01-30T08:31:00;102652.72;;;10.15;100.00
49030;BME280;43337;52.070;4.508;2024-01-30T08:33:27;102662.28;;;10.21;100.00
49030;BME280;43337;52.070;4.508;2024-01-30T08:35:56;102665.78;;;10.21;100.00
49030;BME280;43337;52.070;4.508;2024-01-30T08:38:21;102671.03;;;10.21;100.00
49030;BME280;43337;52.070;4.508;2024-01-30T08:40:46;102660.53;;;10.18;100.00
49030;BME280;43337;52.070;4.508;2024-01-30T08:43:12;102661.44;;;10.17;100.00
49030;BME280;43337;52.070;4.508;2024-01-30T08:45:37;102633.53;;;10.04;100.00
49030;BME280;43337;52.070;4.508;2024-01-30T08:48:03;102636.13;;;10.07;100.00
49030;BME280;43337;52.070;4.508;2024-01-30T08:50:29;102664.88;;;10.24;100.00
49030;BME280;43337;52.070;4.508;2024-01-30T08:52:54;102641.34;;;10.10;100.00
49030;BME280;43337;52.070;4.508;2024-01-30T08:55:20;102668.38;;;10.26;100.00
49030;BME280;43337;52.070;4.508;2024-01-30T08:57:45;102630.00;;;10.05;100.00
49030;BME280;43337;52.070;4.508;2024-01-30T09:00:16;102668.38;;;10.26;100.00
49030;BME280;43337;52.070;4.508;2024-01-30T09:02:45;102678.03;;;10.30;100.00
49030;BME280;43337;52.070;4.508;2024-01-30T09:05:13;102674.47;;;10.33;100.00
49030;BME280;43337;52.070;4.508;2024-01-30T09:07:40;102685.84;;;10.33;100.00
49030;BME280;43337;52.070;4.508;2024-01-30T09:10:06;102692.88;;;10.34;100.00
49030;BME280;43337;52.070;4.508;2024-01-30T09:12:31;102663.19;;;10.18;100.00
49030;BME280;43337;52.070;4.508;2024-01-30T09:14:58;102694.59;;;10.37;100.00
49030;BME280;43337;52.070;4.508;2024-01-30T09:17:30;102681.50;;;10.32;100.00
49030;BME280;43337;52.070;4.508;2024-01-30T09:20:01;102673.69;;;10.23;100.00
49030;BME280;43337;52.070;4.508;2024-01-30T09:22:28;102666.72;;;10.16;100.00
49030;BME280;43337;52.070;4.508;2024-01-30T09:25:00;102690.41;;;10.17;100.00
49030;BME280;43337;52.070;4.508;2024-01-30T09:27:27;102699.06;;;10.32;100.00
49030;BME280;43337;52.070;4.508;2024-01-30T09:29:52;102694.69;;;10.31;100.00
49030;BME280;43337;52.070;4.508;2024-01-30T09:32:20;102678.25;;;10.07;100.00
49030;BME280;43337;52.070;4.508;2024-01-30T09:34:46;102700.00;;;10.21;100.00
49030;BME280;43337;52.070;4.508;2024-01-30T09:37:14;102687.84;;;10.10;100.00
49030;BME280;43337;52.070;4.508;2024-01-30T09:39:41;102679.28;;;9.89;100.00
49030;BME280;43337;52.070;4.508;2024-01-30T09:42:31;102746.53;;;10.18;100.00
49030;BME280;43337;52.070;4.508;2024-01-30T09:45:02;102737.00;;;10.06;100.00
49030;BME280;43337;52.070;4.508;2024-01-30T09:47:31;102730.06;;;9.99;100.00
49030;BME280;43337;52.070;4.508;2024-01-30T09:49:58;102753.69;;;10.05;100.00
49030;BME280;43337;52.070;4.508;2024-01-30T09:52:24;102760.78;;;9.97;100.00
49030;BME280;43337;52.070;4.508;2024-01-30T09:54:51;102753.81;;;9.93;100.00
49030;BME280;43337;52.070;4.508;2024-01-30T09:57:21;102732.09;;;9.69;100.00
49030;BME280;43337;52.070;4.508;2024-01-30T09:59:47;102759.16;;;9.82;100.00
49030;BME280;43337;52.070;4.508;2024-01-30T10:02:12;102704.22;;;9.45;100.00
49030;BME280;43337;52.070;4.508;2024-01-30T10:04:41;102756.66;;;9.67;100.00
49030;BME280;43337;52.070;4.508;2024-01-30T10:07:10;102757.53;;;9.67;100.00
49030;BME280;43337;52.070;4.508;2024-01-30T10:09:39;102755.88;;;9.57;100.00
49030;BME280;43337;52.070;4.508;2024-01-30T10:12:09;102715.69;;;9.37;100.00
49030;BME280;43337;52.070;4.508;2024-01-30T10:14:38;102754.09;;;9.56;100.00
49030;BME280;43337;52.070;4.508;2024-01-30T10:17:03;102754.16;;;9.45;100.00
49030;BME280;43337;52.070;4.508;2024-01-30T10:19:30;102743.72;;;9.39;100.00
49030;BME280;43337;52.070;4.508;2024-01-30T10:21:56;102759.47;;;9.42;100.00
49030;BME280;43337;52.070;4.508;2024-01-30T10:24:27;102746.38;;;9.30;100.00
49030;BME280;43337;52.070;4.508;2024-01-30T10:26:55;102761.25;;;9.39;100.00
49030;BME280;43337;52.070;4.508;2024-01-30T10:29:21;102765.69;;;9.29;100.00
49030;BME280;43337;52.070;4.508;2024-01-30T10:32:00;102744.75;;;9.15;100.00
49030;BME280;43337;52.070;4.508;2024-01-30T10:34:35;102749.19;;;9.02;100.00
49030;BME280;43337;52.070;4.508;2024-01-30T10:37:08;102777.16;;;9.16;100.00
49030;BME280;43337;52.070;4.508;2024-01-30T10:39:40;102783.31;;;9.15;100.00
49030;BME280;43337;52.070;4.508;2024-01-30T10:42:08;102730.88;;;8.86;100.00
49030;BME280;43337;52.070;4.508;2024-01-30T10:47:43;102763.22;;;8.98;100.00
49030;BME280;43337;52.070;4.508;2024-01-30T10:50:11;102767.56;;;9.02;100.00
49030;BME280;43337;52.070;4.508;2024-01-30T10:52:37;102771.06;;;9.09;100.00
49030;BME280;43337;52.070;4.508;2024-01-30T10:55:05;102779.84;;;9.03;100.00
49030;BME280;43337;52.070;4.508;2024-01-30T10:57:37;102775.44;;;9.05;100.00
49030;BME280;43337;52.070;4.508;2024-01-30T11:00:08;102749.22;;;8.95;100.00
49030;BME280;43337;52.070;4.508;2024-01-30T11:02:42;102790.41;;;8.96;100.00
49030;BME280;43337;52.070;4.508;2024-01-30T11:05:09;102782.59;;;8.70;100.00
49030;BME280;43337;52.070;4.508;2024-01-30T11:07:35;102798.34;;;8.74;100.00
49030;BME280;43337;52.070;4.508;2024-01-30T11:10:04;102794.00;;;8.63;100.00
49030;BME280;43337;52.070;4.508;2024-01-30T11:12:33;102797.50;;;8.60;100.00
49030;BME280;43337;52.070;4.508;2024-01-30T11:15:17;102802.75;;;8.57;100.00
49030;BME280;43337;52.070;4.508;2024-01-30T11:20:30;102807.16;;;8.47;100.00
49030;BME280;43337;52.070;4.508;2024-01-30T11:22:59;102776.56;;;8.13;100.00
49030;BME280;43337;52.070;4.508;2024-01-30T11:25:25;102792.31;;;8.37;100.00
49030;BME280;43337;52.070;4.508;2024-01-30T11:27:52;102773.94;;;8.25;100.00
49030;BME280;43337;52.070;4.508;2024-01-30T11:30:29;102787.94;;;8.35;100.00
49030;BME280;43337;52.070;4.508;2024-01-30T11:33:07;102745.97;;;8.13;100.00
49030;BME280;43337;52.070;4.508;2024-01-30T11:35:44;102794.94;;;8.42;100.00
49030;BME280;43337;52.070;4.508;2024-01-30T11:38:15;102740.72;;;8.16;100.00
49030;BME280;43337;52.070;4.508;2024-01-30T11:40:43;102793.16;;;8.51;100.00
49030;BME280;43337;52.070;4.508;2024-01-30T11:43:09;102733.69;;;8.26;100.00
49030;BME280;43337;52.070;4.508;2024-01-30T11:45:38;102737.19;;;8.25;100.00
49030;BME280;43337;52.070;4.508;2024-01-30T11:48:06;102781.78;;;8.54;100.00
49030;BME280;43337;52.070;4.508;2024-01-30T11:50:38;102757.31;;;8.46;100.00
49030;BME280;43337;52.070;4.508;2024-01-30T11:53:05;102774.78;;;8.54;100.00
49030;BME280;43337;52.070;4.508;2024-01-30T11:55:33;102784.41;;;8.54;100.00
49030;BME280;43337;52.070;4.508;2024-01-30T11:58:01;102808.00;;;8.66;100.00
49030;BME280;43337;52.070;4.508;2024-01-30T12:03:17;102807.16;;;8.55;100.00
49030;BME280;43337;52.070;4.508;2024-01-30T12:05:43;102819.41;;;8.56;100.00
49030;BME280;43337;52.070;4.508;2024-01-30T12:08:15;102828.16;;;8.53;100.00
49030;BME280;43337;52.070;4.508;2024-01-30T12:10:40;102820.28;;;8.47;100.00
49030;BME280;43337;52.070;4.508;2024-01-30T12:13:05;102807.19;;;8.38;100.00
49030;BME280;43337;52.070;4.508;2024-01-30T12:15:31;102779.19;;;8.17;100.00
49030;BME280;43337;52.070;4.508;2024-01-30T12:18:06;102834.31;;;8.39;100.00
49030;BME280;43337;52.070;4.508;2024-01-30T12:20:32;102845.69;;;8.42;100.00
49030;BME280;43337;52.070;4.508;2024-01-30T12:22:59;102818.53;;;8.29;100.00
49030;BME280;43337;52.070;4.508;2024-01-30T12:25:25;102844.78;;;8.36;100.00
49030;BME280;43337;52.070;4.508;2024-01-30T12:27:51;102808.06;;;8.11;100.00
49030;BME280;43337;52.070;4.508;2024-01-30T12:30:17;102847.41;;;8.23;100.00
49030;BME280;43337;52.070;4.508;2024-01-30T12:32:45;102823.81;;;8.08;100.00
49030;BME280;43337;52.070;4.508;2024-01-30T12:35:12;102843.91;;;8.17;100.00
49030;BME280;43337;52.070;4.508;2024-01-30T12:37:40;102847.41;;;8.14;100.00
49030;BME280;43337;52.070;4.508;2024-01-30T12:40:10;102832.53;;;8.01;100.00
49030;BME280;43337;52.070;4.508;2024-01-30T12:42:36;102857.03;;;8.12;100.00
49030;BME280;43337;52.070;4.508;2024-01-30T12:45:03;102860.53;;;8.13;100.00
49030;BME280;43337;52.070;4.508;2024-01-30T12:47:30;102850.91;;;8.12;100.00
49030;BME280;43337;52.070;4.508;2024-01-30T12:49:59;102865.75;;;8.14;100.00
49030;BME280;43337;52.070;4.508;2024-01-30T12:52:24;102839.53;;;8.06;100.00
49030;BME280;43337;52.070;4.508;2024-01-30T12:54:52;102864.91;;;8.17;100.00
49030;BME280;43337;52.070;4.508;2024-01-30T12:57:29;102813.31;;;7.93;100.00